Nuckols, Kentucky
Current Conditions -  °F | °C
As of 8:56 AM on Wednesday 26 Nov 2014 (Local Time) from KOWB Reporting Station
Haze Haze  
Wind Chill: 24°   Ceiling: Unl
Heat Index: 31°   Visibility: 6mi
Dew Point: 28°   Wind: 7mph
Humidity: 88%   Direction: 110°ESE
Pressure: 30.15"   Gusts: NA
Location:  37.517°N, 87.0795°W
Report Text: KOWB 261456Z 11006KT 6SM HZ CLR M01/M02 A3015 RMK AO2 50002 T10051022 SLP213
Loading
Personal Weather Stations






























Interactive Weather Map New forecast layout! Learn more

10-Day Weather Forecast

Advertisements
Track Severe Weather on mobile